Hlavní strana
METAR-TAF:

METAR-TAF

Letiště :

Ingolstadt, Německo

zeměpisná šířka: 48-43N, zeměpisná délka: 011-32E, výška: 367 m

Aktuální stav počasí

Zpráva byla vytvořena před 14 minutami, v 10:20 UTC
Severovýchodní vítr 3 kt
Teplota 18°C
Vlhkost vzduchu 49%
Tlak 1016 hPa
Viditelnost 10 km a více
Skoro jasno ve výšce 18000 ft

METAR: ETSI 151020Z 05003KT 9999 FEW180 18/07 Q1016 BLU+BLU+

Čas: 12:34 (10:34 UTC)

Předpověď počasí

Zpráva byla vytvořena před 3 hodinami a 20 minutami, v 07:14 UTC
Předpověď platná od 15 v 08 UTC do 15 v 17 UTC
Východoseverovýchodní vítr 4 kt
Viditelnost 10 km a více
Skoro jasno ve výšce 10000 ft
Polojasno ve výšce 25000 ft

TAF: ETSI 150714Z 1508/1517 07004KT 9999 NSW FEW100 SCT250

Stav a předpovědi počasí z více než 4 000 letišť (zprávy METAR a TAF).

Červené a žluté tečky na mapě představují dostupné meteorologické stanice.

Když kurzor umístíte na tečku, zobrazí se název stanice.

Pak kliknutím zobrazíte stav a předpověď počasí.

Chcete-li změnit mapu, kliknutím na zelené tlačítko se znaménkem +mapu přiblížíte, kliknutím na zelené tlačítko se znaménkem – mapu oddálíte a kliknutím na zelené šipky přejdete na sousední mapy.


METAR-TAF: